Time,TemperatureF,DewpointF,PressureIn,WindDirection,WindDirectionDegrees,WindSpeedMPH,WindSpeedGustMPH,Humidity,HourlyPrecipIn,Conditions,Clouds,dailyrainin,SoftwareType,DateUTC
2013-01-16 00:06:00,55.1,55.0,29.95,WSW,252,0.0,3.0,98,0.08,,,0.00,weatherlink.com 1.10,2013-01-16 06:06:00,
2013-01-16 00:21:00,54.3,54.0,29.95,WNW,300,1.0,5.0,98,0.08,,,0.00,weatherlink.com 1.10,2013-01-16 06:21:00,
2013-01-16 00:36:00,53.8,53.0,29.94,NNE,30,0.0,2.0,98,0.06,,,0.00,weatherlink.com 1.10,2013-01-16 06:36:00,
2013-01-16 00:51:00,53.6,53.0,29.94,NNW,334,1.0,1.0,99,0.00,,,0.00,weatherlink.com 1.10,2013-01-16 06:51:00,
2013-01-16 01:06:00,53.5,53.0,29.95,WNW,291,0.0,3.0,99,0.00,,,0.00,weatherlink.com 1.10,2013-01-16 07:06:00,
2013-01-16 01:21:00,53.0,53.0,29.95,NE,36,0.0,2.0,99,0.00,,,0.00,weatherlink.com 1.10,2013-01-16 07:21:00,
2013-01-16 01:36:00,52.6,52.0,29.96,NNW,338,0.0,2.0,99,0.00,,,0.00,weatherlink.com 1.10,2013-01-16 07:36:00,
2013-01-16 01:51:00,52.1,52.0,29.96,NNE,16,0.0,3.0,98,0.00,,,0.00,weatherlink.com 1.10,2013-01-16 07:51:00,
2013-01-16 02:06:00,51.9,52.0,29.95,WNW,302,0.0,4.0,99,0.00,,,0.00,weatherlink.com 1.10,2013-01-16 08:06:00,
2013-01-16 02:21:00,51.7,52.0,29.95,North,360,0.0,2.0,99,0.00,,,0.00,weatherlink.com 1.10,2013-01-16 08:21:00,
2013-01-16 02:36:00,51.4,51.0,29.96,North,358,0.0,1.0,99,0.00,,,0.00,weatherlink.com 1.10,2013-01-16 08:36:00,
2013-01-16 02:51:00,51.2,51.0,29.96,NE,39,0.0,3.0,99,0.00,,,0.00,weatherlink.com 1.10,2013-01-16 08:51:00,
2013-01-16 03:06:00,50.9,51.0,29.96,NW,314,1.0,3.0,99,0.00,,,0.00,weatherlink.com 1.10,2013-01-16 09:06:00,
2013-01-16 03:21:00,50.4,50.0,29.97,ENE,60,2.0,7.0,99,0.00,,,0.00,weatherlink.com 1.10,2013-01-16 09:21:00,
2013-01-16 03:36:00,49.7,49.0,29.96,NW,307,1.0,8.0,98,0.00,,,0.00,weatherlink.com 1.10,2013-01-16 09:36:00,
2013-01-16 03:51:00,49.3,49.0,29.96,NNE,32,0.0,4.0,99,0.00,,,0.00,weatherlink.com 1.10,2013-01-16 09:51:00,
2013-01-16 04:06:00,48.9,49.0,29.96,NE,44,1.0,4.0,99,0.00,,,0.00,weatherlink.com 1.10,2013-01-16 10:06:00,
2013-01-16 04:21:00,48.5,48.0,29.97,WNW,291,1.0,5.0,99,0.00,,,0.00,weatherlink.com 1.10,2013-01-16 10:21:00,
2013-01-16 04:36:00,48.2,48.0,29.98,ENE,65,1.0,4.0,99,0.00,,,0.00,weatherlink.com 1.10,2013-01-16 10:36:00,
2013-01-16 04:51:00,47.9,48.0,29.97,NE,47,2.0,3.0,99,0.01,,,0.01,weatherlink.com 1.10,2013-01-16 10:51:00,
2013-01-16 05:06:00,47.5,47.0,29.97,ENE,58,0.0,5.0,99,0.01,,,0.01,weatherlink.com 1.10,2013-01-16 11:06:00,
2013-01-16 05:22:00,47.3,47.0,29.98,West,281,0.0,4.0,99,0.01,,,0.01,weatherlink.com 1.10,2013-01-16 11:22:00,
2013-01-16 05:37:00,47.2,47.0,29.98,ENE,61,1.0,3.0,99,0.01,,,0.01,weatherlink.com 1.10,2013-01-16 11:37:00,
2013-01-16 05:52:00,47.1,47.0,29.98,North,356,0.0,5.0,99,0.00,,,0.01,weatherlink.com 1.10,2013-01-16 11:52:00,
2013-01-16 06:07:00,46.9,47.0,29.99,North,8,0.0,2.0,99,0.00,,,0.01,weatherlink.com 1.10,2013-01-16 12:07:00,
2013-01-16 06:22:00,46.8,47.0,29.99,ENE,59,1.0,3.0,99,0.00,,,0.01,weatherlink.com 1.10,2013-01-16 12:22:00,
2013-01-16 06:37:00,46.8,47.0,29.99,NE,43,1.0,4.0,99,0.00,,,0.01,weatherlink.com 1.10,2013-01-16 12:37:00,
2013-01-16 06:52:00,46.6,46.0,29.99,NE,40,3.0,4.0,98,0.00,,,0.01,weatherlink.com 1.10,2013-01-16 12:52:00,
2013-01-16 07:07:00,46.8,47.0,29.99,NE,44,0.0,3.0,99,0.00,,,0.01,weatherlink.com 1.10,2013-01-16 13:07:00,
2013-01-16 07:22:00,46.8,46.0,30.01,NE,51,2.0,3.0,98,0.00,,,0.01,weatherlink.com 1.10,2013-01-16 13:22:00,
2013-01-16 07:37:00,47.1,47.0,30.01,NNE,27,1.0,2.0,99,0.00,,,0.01,weatherlink.com 1.10,2013-01-16 13:37:00,
2013-01-16 07:52:00,47.1,47.0,30.02,NE,45,1.0,5.0,98,0.00,,,0.01,weatherlink.com 1.10,2013-01-16 13:52:00,
2013-01-16 08:07:00,47.1,47.0,30.03,WNW,292,2.0,4.0,98,0.00,,,0.01,weatherlink.com 1.10,2013-01-16 14:07:00,
2013-01-16 08:22:00,46.8,46.0,30.04,NE,54,1.0,4.0,98,0.00,,,0.01,weatherlink.com 1.10,2013-01-16 14:22:00,
2013-01-16 08:37:00,47.0,47.0,30.03,NW,314,1.0,5.0,98,0.00,,,0.01,weatherlink.com 1.10,2013-01-16 14:37:00,
2013-01-16 08:52:00,46.9,46.0,30.04,NNE,20,7.0,8.0,98,0.00,,,0.01,weatherlink.com 1.10,2013-01-16 14:52:00,
2013-01-16 09:07:00,46.9,46.0,30.04,NE,54,0.0,5.0,97,0.00,,,0.01,weatherlink.com 1.10,2013-01-16 15:07:00,
2013-01-16 09:22:00,47.0,46.0,30.04,West,281,2.0,7.0,96,0.00,,,0.01,weatherlink.com 1.10,2013-01-16 15:22:00,
2013-01-16 09:37:00,47.0,46.0,30.04,NE,49,2.0,5.0,97,0.00,,,0.01,weatherlink.com 1.10,2013-01-16 15:37:00,
2013-01-16 09:52:00,47.1,46.0,30.04,ENE,61,3.0,6.0,96,0.00,,,0.01,weatherlink.com 1.10,2013-01-16 15:52:00,
2013-01-16 10:07:00,47.5,47.0,30.03,WNW,302,0.0,3.0,96,0.00,,,0.01,weatherlink.com 1.10,2013-01-16 16:07:00,
2013-01-16 10:22:00,47.1,46.0,30.03,NE,47,1.0,6.0,96,0.00,,,0.01,weatherlink.com 1.10,2013-01-16 16:22:00,
2013-01-16 10:37:00,47.4,46.0,30.02,NNE,32,1.0,3.0,96,0.00,,,0.01,weatherlink.com 1.10,2013-01-16 16:37:00,
2013-01-16 10:52:00,47.2,46.0,30.02,ENE,59,0.0,5.0,95,0.00,,,0.01,weatherlink.com 1.10,2013-01-16 16:52:00,
2013-01-16 11:07:00,47.0,46.0,30.01,NE,47,1.0,4.0,95,0.00,,,0.01,weatherlink.com 1.10,2013-01-16 17:07:00,
2013-01-16 11:22:00,46.9,46.0,30.00,North,9,1.0,4.0,95,0.00,,,0.01,weatherlink.com 1.10,2013-01-16 17:22:00,
2013-01-16 11:37:00,46.9,46.0,30.00,WNW,288,0.0,3.0,95,0.00,,,0.01,weatherlink.com 1.10,2013-01-16 17:37:00,
2013-01-16 11:52:00,47.2,46.0,30.00,NW,314,1.0,4.0,95,0.00,,,0.01,weatherlink.com 1.10,2013-01-16 17:52:00,
2013-01-16 12:07:00,47.4,46.0,30.00,SSW,208,1.0,6.0,94,0.00,,,0.01,weatherlink.com 1.10,2013-01-16 18:07:00,
2013-01-16 12:22:00,47.6,46.0,30.00,NW,325,1.0,8.0,93,0.00,,,0.01,weatherlink.com 1.10,2013-01-16 18:22:00,
2013-01-16 12:37:00,47.6,46.0,30.00,NW,311,1.0,6.0,93,0.00,,,0.01,weatherlink.com 1.10,2013-01-16 18:37:00,
2013-01-16 12:52:00,47.2,45.0,30.00,WNW,292,3.0,6.0,93,0.00,,,0.01,weatherlink.com 1.10,2013-01-16 18:52:00,
2013-01-16 13:07:00,46.8,45.0,29.99,NNW,345,2.0,-999.0,94,-99.99,,,0.01,weatherlink.com 1.10,2013-01-16 19:07:00,
2013-01-16 13:22:00,46.3,45.0,30.00,NNW,331,4.0,8.0,94,0.00,,,0.01,weatherlink.com 1.10,2013-01-16 19:22:00,
2013-01-16 13:37:00,46.0,44.0,30.00,West,276,3.0,7.0,94,0.00,,,0.01,weatherlink.com 1.10,2013-01-16 19:37:00,
2013-01-16 13:52:00,45.7,44.0,30.00,NE,39,0.0,7.0,94,0.00,,,0.01,weatherlink.com 1.10,2013-01-16 19:52:00,
2013-01-16 14:07:00,45.6,44.0,30.00,NNW,338,3.0,7.0,94,0.00,,,0.01,weatherlink.com 1.10,2013-01-16 20:07:00,
2013-01-16 14:22:00,45.8,44.0,30.00,ENE,70,1.0,5.0,94,0.00,,,0.01,weatherlink.com 1.10,2013-01-16 20:22:00,
2013-01-16 14:37:00,46.2,44.0,29.99,WSW,252,2.0,5.0,93,0.00,,,0.01,weatherlink.com 1.10,2013-01-16 20:37:00,
2013-01-16 14:52:00,46.5,45.0,30.00,North,4,0.0,5.0,93,0.00,,,0.01,weatherlink.com 1.10,2013-01-16 20:52:00,
2013-01-16 15:07:00,46.5,45.0,30.01,NW,324,3.0,6.0,93,0.00,,,0.01,weatherlink.com 1.10,2013-01-16 21:07:00,
2013-01-16 15:22:00,46.1,44.0,30.01,WNW,294,1.0,6.0,93,0.00,,,0.01,weatherlink.com 1.10,2013-01-16 21:22:00,
2013-01-16 16:33:00,45.3,43.0,30.02,ENE,58,2.0,4.0,93,0.00,,,0.01,weatherlink.com 1.10,2013-01-16 22:33:00,
2013-01-16 16:43:00,45.1,43.0,30.02,NE,43,2.0,5.0,93,0.00,,,0.01,weatherlink.com 1.10,2013-01-16 22:43:00,
2013-01-16 17:11:00,45.0,43.0,30.02,North,353,0.0,3.0,94,0.00,,,0.01,weatherlink.com 1.10,2013-01-16 23:11:00,
2013-01-16 17:43:00,44.9,43.0,30.02,ENE,75,4.0,4.0,94,0.00,,,0.01,weatherlink.com 1.10,2013-01-16 23:43:00,
2013-01-16 17:52:00,44.9,43.0,30.02,ENE,57,0.0,6.0,94,0.00,,,0.01,weatherlink.com 1.10,2013-01-16 23:52:00,
2013-01-16 18:07:00,44.8,43.0,30.02,NNW,334,0.0,5.0,94,0.00,,,0.01,weatherlink.com 1.10,2013-01-17 00:07:00,
2013-01-16 18:22:00,44.8,44.0,30.04,West,274,0.0,2.0,95,0.00,,,0.01,weatherlink.com 1.10,2013-01-17 00:22:00,
2013-01-16 18:37:00,44.6,44.0,30.03,WSW,257,2.0,3.0,96,0.00,,,0.01,weatherlink.com 1.10,2013-01-17 00:37:00,
2013-01-16 18:52:00,44.3,43.0,30.04,West,272,1.0,4.0,96,0.00,,,0.01,weatherlink.com 1.10,2013-01-17 00:52:00,
2013-01-16 19:07:00,44.0,43.0,30.05,WSW,248,1.0,3.0,96,0.00,,,0.01,weatherlink.com 1.10,2013-01-17 01:07:00,
2013-01-16 19:22:00,43.6,43.0,30.04,NW,309,3.0,5.0,96,0.00,,,0.01,weatherlink.com 1.10,2013-01-17 01:22:00,
2013-01-16 19:37:00,43.2,42.0,30.04,SW,229,3.0,4.0,96,0.00,,,0.01,weatherlink.com 1.10,2013-01-17 01:37:00,
2013-01-16 19:52:00,43.1,42.0,30.04,NNW,334,2.0,5.0,96,0.00,,,0.01,weatherlink.com 1.10,2013-01-17 01:52:00,
2013-01-16 20:07:00,43.2,42.0,30.04,WNW,290,1.0,5.0,96,0.00,,,0.01,weatherlink.com 1.10,2013-01-17 02:07:00,
2013-01-16 20:22:00,43.1,42.0,30.04,South,181,3.0,7.0,96,0.00,,,0.01,weatherlink.com 1.10,2013-01-17 02:22:00,
2013-01-16 20:37:00,43.1,42.0,30.04,NW,318,1.0,6.0,96,0.00,,,0.01,weatherlink.com 1.10,2013-01-17 02:37:00,
2013-01-16 20:52:00,42.8,42.0,30.06,SW,229,2.0,4.0,96,0.00,,,0.01,weatherlink.com 1.10,2013-01-17 02:52:00,
2013-01-16 21:07:00,42.5,42.0,30.06,NW,318,3.0,5.0,97,0.00,,,0.01,weatherlink.com 1.10,2013-01-17 03:07:00,
2013-01-16 21:22:00,42.4,42.0,30.05,NW,322,1.0,5.0,97,0.00,,,0.01,weatherlink.com 1.10,2013-01-17 03:22:00,
2013-01-16 21:37:00,42.2,41.0,30.05,NW,304,2.0,4.0,97,0.00,,,0.01,weatherlink.com 1.10,2013-01-17 03:37:00,
2013-01-16 21:52:00,41.9,41.0,30.05,WSW,250,0.0,5.0,97,0.00,,,0.01,weatherlink.com 1.10,2013-01-17 03:52:00,
2013-01-16 22:07:00,41.7,41.0,30.05,WSW,257,0.0,3.0,97,0.00,,,0.01,weatherlink.com 1.10,2013-01-17 04:07:00,
2013-01-16 22:22:00,41.7,41.0,30.04,West,262,0.0,3.0,97,0.00,,,0.01,weatherlink.com 1.10,2013-01-17 04:22:00,
2013-01-16 22:37:00,41.5,41.0,30.05,WSW,248,0.0,4.0,97,0.00,,,0.01,weatherlink.com 1.10,2013-01-17 04:37:00,
2013-01-16 22:53:00,41.5,41.0,30.05,WNW,301,0.0,2.0,97,0.00,,,0.01,weatherlink.com 1.10,2013-01-17 04:53:00,
2013-01-16 23:08:00,41.3,41.0,30.06,NW,323,0.0,3.0,98,0.00,,,0.01,weatherlink.com 1.10,2013-01-17 05:08:00,
2013-01-16 23:23:00,41.1,40.0,30.06,West,264,2.0,5.0,97,0.00,,,0.01,weatherlink.com 1.10,2013-01-17 05:23:00,
2013-01-16 23:38:00,40.6,40.0,30.05,West,263,0.0,2.0,97,0.00,,,0.01,weatherlink.com 1.10,2013-01-17 05:38:00,
2013-01-16 23:53:00,40.3,40.0,30.05,WNW,297,4.0,5.0,98,0.00,,,0.01,weatherlink.com 1.10,2013-01-17 05:53:00,